createdAt,value
2017-09-22T00:01:59.873Z,11.00
2017-09-22T00:04:27.472Z,10.90
2017-09-22T00:06:55.808Z,11.00
2017-09-22T00:09:23.601Z,11.00
2017-09-22T00:11:51.164Z,11.10
2017-09-22T00:14:18.736Z,11.10
2017-09-22T00:16:47.303Z,11.20
2017-09-22T00:19:14.868Z,11.20
2017-09-22T00:21:42.519Z,11.30
2017-09-22T00:24:10.107Z,11.30
2017-09-22T00:26:38.437Z,11.40
2017-09-22T00:29:06.028Z,11.40
2017-09-22T00:31:33.682Z,11.40
2017-09-22T00:34:02.783Z,11.30
2017-09-22T00:36:30.358Z,11.30
2017-09-22T00:38:59.876Z,11.30
2017-09-22T00:41:28.216Z,11.30
2017-09-22T00:43:55.896Z,11.30
2017-09-22T00:46:23.459Z,11.40
2017-09-22T00:48:51.060Z,11.40
2017-09-22T00:51:18.633Z,11.40
2017-09-22T00:53:46.444Z,11.50
2017-09-22T00:56:14.008Z,11.50
2017-09-22T00:58:41.580Z,11.50
2017-09-22T01:01:10.049Z,11.60
2017-09-22T01:03:38.390Z,11.60
2017-09-22T01:06:05.992Z,11.60
2017-09-22T01:08:34.340Z,11.70
2017-09-22T01:11:03.055Z,11.80
2017-09-22T01:13:31.408Z,11.80
2017-09-22T01:16:01.260Z,11.90
2017-09-22T01:18:29.991Z,12.00
2017-09-22T01:20:59.296Z,12.00
2017-09-22T01:23:26.957Z,12.00
2017-09-22T01:25:54.660Z,12.00
2017-09-22T01:28:22.485Z,11.90
2017-09-22T01:30:50.089Z,12.00
2017-09-22T01:33:17.683Z,12.00
2017-09-22T01:35:45.307Z,11.90
2017-09-22T01:38:12.908Z,12.10
2017-09-22T01:40:40.490Z,12.10
2017-09-22T01:43:08.084Z,12.20
2017-09-22T01:45:35.656Z,12.20
2017-09-22T01:48:04.298Z,12.30
2017-09-22T01:50:31.867Z,12.30
2017-09-22T01:53:00.872Z,12.40
2017-09-22T01:55:28.559Z,12.40
2017-09-22T01:57:56.452Z,12.40
2017-09-22T02:00:24.784Z,12.40
2017-09-22T02:02:52.355Z,12.50
2017-09-22T02:05:20.008Z,12.50
2017-09-22T02:07:47.584Z,12.50
2017-09-22T02:10:15.181Z,12.40
2017-09-22T02:12:42.753Z,12.30
2017-09-22T02:15:10.349Z,12.30
2017-09-22T02:17:37.920Z,12.30
2017-09-22T02:20:05.700Z,12.30
2017-09-22T02:22:33.272Z,12.20
2017-09-22T02:25:02.740Z,12.20
2017-09-22T02:27:30.424Z,12.20
2017-09-22T02:29:57.996Z,12.20
2017-09-22T02:32:26.355Z,12.30
2017-09-22T02:34:54.029Z,12.20
2017-09-22T02:37:21.633Z,12.20
2017-09-22T02:39:49.244Z,12.30
2017-09-22T02:42:17.016Z,12.30
2017-09-22T02:44:44.868Z,12.20
2017-09-22T02:47:12.544Z,12.30
2017-09-22T02:49:40.145Z,12.20
2017-09-22T02:52:07.780Z,12.10
2017-09-22T02:54:36.146Z,12.10
2017-09-22T02:57:03.713Z,12.10
2017-09-22T02:59:31.339Z,12.00
2017-09-22T03:02:00.847Z,12.00
2017-09-22T03:04:28.740Z,12.00
2017-09-22T03:06:56.314Z,12.10
2017-09-22T03:09:23.893Z,12.10
2017-09-22T03:11:52.256Z,12.10
2017-09-22T03:14:20.600Z,12.10
2017-09-22T03:16:48.200Z,12.10
2017-09-22T03:19:16.540Z,12.00
2017-09-22T03:21:44.224Z,12.00
2017-09-22T03:24:11.893Z,11.90
2017-09-22T03:26:39.492Z,11.70
2017-09-22T03:29:07.072Z,11.40
2017-09-22T03:31:34.639Z,11.20
2017-09-22T03:34:02.229Z,11.00
2017-09-22T03:36:30.080Z,10.90
2017-09-22T03:38:57.677Z,10.80
2017-09-22T03:41:26.011Z,10.60
2017-09-22T03:43:53.713Z,10.60
2017-09-22T03:46:22.055Z,10.50
2017-09-22T03:48:49.652Z,10.50
2017-09-22T03:51:17.988Z,10.40
2017-09-22T03:53:45.893Z,10.40
2017-09-22T03:56:13.556Z,10.40
2017-09-22T03:58:41.686Z,10.40
2017-09-22T04:01:09.276Z,10.40
2017-09-22T04:03:36.844Z,10.30
2017-09-22T04:06:04.440Z,10.30
2017-09-22T04:08:32.780Z,10.30
2017-09-22T04:11:02.808Z,10.40
2017-09-22T04:13:30.388Z,10.30
2017-09-22T04:16:00.208Z,10.40
2017-09-22T04:18:28.564Z,10.30
2017-09-22T04:20:56.225Z,10.30
2017-09-22T04:23:24.571Z,10.30
2017-09-22T04:25:52.165Z,10.20
2017-09-22T04:28:19.741Z,10.20
2017-09-22T04:30:48.124Z,10.20
2017-09-22T04:33:16.460Z,10.20
2017-09-22T04:35:44.032Z,10.20
2017-09-22T04:38:11.889Z,10.20
2017-09-22T04:40:39.456Z,10.20
2017-09-22T04:43:07.081Z,10.20
2017-09-22T04:45:34.651Z,10.20
2017-09-22T04:48:02.227Z,10.10
2017-09-22T04:50:29.825Z,10.10
2017-09-22T04:52:59.079Z,9.90
2017-09-22T04:55:26.673Z,9.90
2017-09-22T04:57:54.244Z,9.90
2017-09-22T05:00:22.581Z,9.90
2017-09-22T05:02:50.168Z,9.80
2017-09-22T05:05:17.835Z,9.80
2017-09-22T05:07:45.403Z,9.70
2017-09-22T05:10:13.000Z,9.70
2017-09-22T05:12:40.569Z,9.70
2017-09-22T05:15:08.192Z,9.70
2017-09-22T05:17:36.557Z,9.70
2017-09-22T05:20:04.116Z,9.60
2017-09-22T05:22:31.708Z,9.70
2017-09-22T05:25:00.769Z,9.70
2017-09-22T05:27:28.357Z,9.70
2017-09-22T05:29:56.693Z,9.70
2017-09-22T05:32:24.285Z,9.70
2017-09-22T05:34:51.853Z,9.70
2017-09-22T05:37:20.200Z,9.70
2017-09-22T05:39:47.764Z,9.70
2017-09-22T05:42:15.436Z,9.80
2017-09-22T05:44:42.999Z,9.80
2017-09-22T05:47:10.560Z,9.80
2017-09-22T05:49:38.153Z,9.80
2017-09-22T05:52:05.722Z,9.70
2017-09-22T05:54:33.341Z,9.70
2017-09-22T05:57:02.716Z,9.60
2017-09-22T05:59:30.407Z,9.60
2017-09-22T06:01:59.671Z,9.60
2017-09-22T06:04:27.264Z,9.70
2017-09-22T06:06:55.608Z,9.80
2017-09-22T06:09:23.296Z,9.70
2017-09-22T06:11:50.868Z,9.90
2017-09-22T06:14:18.441Z,10.00
2017-09-22T06:16:46.800Z,10.20
2017-09-22T06:19:14.364Z,10.20
2017-09-22T06:21:42.037Z,10.30
2017-09-22T06:24:09.604Z,10.50
2017-09-22T06:26:37.967Z,10.60
2017-09-22T06:29:05.540Z,10.60
2017-09-22T06:31:34.020Z,10.90
2017-09-22T06:34:02.781Z,11.00
2017-09-22T06:36:30.343Z,11.00
2017-09-22T06:38:57.936Z,11.10
2017-09-22T06:41:25.504Z,11.30
2017-09-22T06:43:54.688Z,11.60
2017-09-22T06:46:22.256Z,11.60
2017-09-22T06:48:49.912Z,11.80
2017-09-22T06:51:18.253Z,12.10
2017-09-22T06:53:45.844Z,12.10
2017-09-22T06:56:14.928Z,12.40
2017-09-22T06:58:42.545Z,12.40
2017-09-22T07:01:10.455Z,12.50
2017-09-22T07:03:38.140Z,12.60
2017-09-22T07:06:05.733Z,12.60
2017-09-22T07:08:33.295Z,12.70
2017-09-22T07:11:02.960Z,12.80
2017-09-22T07:13:30.532Z,12.80
2017-09-22T07:15:59.116Z,13.00
2017-09-22T07:18:26.677Z,13.10
2017-09-22T07:20:54.272Z,13.20
2017-09-22T07:23:21.838Z,13.30
2017-09-22T07:25:49.461Z,13.30
2017-09-22T07:28:17.031Z,13.30
2017-09-22T07:30:45.404Z,13.40
2017-09-22T07:33:13.122Z,13.40
2017-09-22T07:35:40.695Z,13.50
2017-09-22T07:38:08.384Z,13.50
2017-09-22T07:40:35.952Z,13.50
2017-09-22T07:43:03.540Z,13.40
2017-09-22T07:45:31.108Z,13.30
2017-09-22T07:47:58.725Z,13.30
2017-09-22T07:50:26.292Z,13.30
2017-09-22T07:52:53.889Z,13.30
2017-09-22T07:55:21.464Z,13.30
2017-09-22T07:57:49.184Z,13.30
2017-09-22T08:00:16.756Z,13.30
2017-09-22T08:02:45.095Z,13.40
2017-09-22T08:05:12.684Z,13.40
2017-09-22T08:07:40.256Z,13.50
2017-09-22T08:10:08.716Z,13.60
2017-09-22T08:12:36.289Z,13.60
2017-09-22T08:15:04.664Z,13.60
2017-09-22T08:17:32.321Z,13.60
2017-09-22T08:20:01.844Z,13.70
2017-09-22T08:22:30.204Z,13.80
2017-09-22T08:24:57.773Z,13.80
2017-09-22T08:27:25.437Z,13.80
2017-09-22T08:29:53.380Z,13.80
2017-09-22T08:32:20.949Z,13.60
2017-09-22T08:34:48.516Z,13.60
2017-09-22T08:37:16.123Z,13.60
2017-09-22T08:39:43.687Z,13.60
2017-09-22T08:42:11.261Z,13.60
2017-09-22T08:44:38.852Z,13.40
2017-09-22T08:47:06.713Z,13.40
2017-09-22T08:49:34.284Z,13.30
2017-09-22T08:52:03.901Z,13.40
2017-09-22T08:54:31.478Z,13.40
2017-09-22T08:57:00.760Z,13.50
2017-09-22T08:59:28.331Z,13.50
2017-09-22T09:01:56.704Z,13.50
2017-09-22T09:04:24.280Z,13.40
2017-09-22T09:06:52.639Z,13.30
2017-09-22T09:09:20.236Z,13.30
2017-09-22T09:11:47.809Z,13.30
2017-09-22T09:14:15.405Z,13.30
2017-09-22T09:16:42.980Z,13.30
2017-09-22T09:19:10.571Z,13.30
2017-09-22T09:21:38.928Z,13.30
2017-09-22T09:24:06.597Z,13.30
2017-09-22T09:26:34.936Z,13.30
2017-09-22T09:29:03.226Z,13.30
2017-09-22T09:31:30.908Z,13.40
2017-09-22T09:33:58.496Z,13.50
2017-09-22T09:36:26.838Z,13.90
2017-09-22T09:38:54.429Z,13.90
2017-09-22T09:41:22.769Z,14.30
2017-09-22T09:43:50.364Z,14.20
2017-09-22T09:46:18.709Z,14.60
2017-09-22T09:48:46.300Z,14.60
2017-09-22T09:51:14.632Z,15.00
2017-09-22T09:53:42.225Z,15.00
2017-09-22T09:56:09.891Z,15.50
2017-09-22T09:58:37.505Z,15.80
2017-09-22T10:01:05.076Z,16.10
2017-09-22T10:03:32.672Z,16.50
2017-09-22T10:06:02.792Z,17.20
2017-09-22T10:08:30.372Z,17.20
2017-09-22T10:10:58.728Z,17.60
2017-09-22T10:13:26.388Z,17.60
2017-09-22T10:15:54.055Z,17.90
2017-09-22T10:18:21.620Z,18.20
2017-09-22T10:20:49.208Z,18.30
2017-09-22T10:23:17.547Z,18.60
2017-09-22T10:25:45.219Z,18.60
2017-09-22T10:28:12.801Z,18.80
2017-09-22T10:30:41.160Z,19.70
2017-09-22T10:33:10.252Z,20.40
2017-09-22T10:35:39.352Z,21.30
2017-09-22T10:38:07.686Z,22.70
2017-09-22T10:40:35.288Z,22.60
2017-09-22T10:43:04.390Z,24.10
2017-09-22T10:45:32.760Z,24.50
2017-09-22T10:48:02.140Z,25.00
2017-09-22T10:50:29.827Z,24.90
2017-09-22T10:52:57.400Z,25.70
2017-09-22T10:55:25.767Z,26.70
2017-09-22T10:57:53.337Z,26.60
2017-09-22T11:00:21.035Z,27.00
2017-09-22T11:02:48.608Z,27.00
2017-09-22T11:05:16.200Z,27.00
2017-09-22T11:07:43.884Z,27.50
2017-09-22T11:10:11.456Z,28.00
2017-09-22T11:12:39.816Z,28.80
2017-09-22T11:15:07.484Z,28.80
2017-09-22T11:17:36.584Z,29.00
2017-09-22T11:20:04.248Z,28.90
2017-09-22T11:22:31.843Z,29.00
2017-09-22T11:25:00.765Z,31.30
2017-09-22T11:27:28.363Z,31.20
2017-09-22T11:29:55.949Z,32.00
2017-09-22T11:32:24.360Z,33.40
2017-09-22T11:34:51.959Z,33.40
2017-09-22T11:37:20.371Z,33.50
2017-09-22T11:39:48.876Z,34.00
2017-09-22T11:42:16.506Z,33.90
2017-09-22T11:44:44.092Z,33.70
2017-09-22T11:47:11.712Z,33.20
2017-09-22T11:49:39.380Z,33.20
2017-09-22T11:52:07.717Z,31.50
2017-09-22T11:54:35.312Z,31.50
2017-09-22T11:57:03.657Z,32.30
2017-09-22T11:59:31.354Z,32.30
2017-09-22T12:01:59.012Z,32.10
2017-09-22T12:04:26.640Z,31.50
2017-09-22T12:06:54.212Z,31.00
2017-09-22T12:09:21.875Z,30.70
2017-09-22T12:11:49.453Z,30.40
2017-09-22T12:14:17.048Z,30.00
2017-09-22T12:16:45.379Z,28.90
2017-09-22T12:19:12.979Z,28.90
2017-09-22T12:21:41.320Z,28.30
2017-09-22T12:24:09.004Z,28.20
2017-09-22T12:26:36.568Z,28.20
2017-09-22T12:29:04.157Z,28.90
2017-09-22T12:31:31.839Z,30.40
2017-09-22T12:34:01.765Z,29.50
2017-09-22T12:36:29.351Z,29.50
2017-09-22T12:38:57.023Z,28.40
2017-09-22T12:41:24.620Z,27.90
2017-09-22T12:43:52.185Z,27.00
2017-09-22T12:46:19.829Z,26.10
2017-09-22T12:48:47.573Z,25.80
2017-09-22T12:51:15.173Z,26.00
2017-09-22T12:53:42.797Z,25.90
2017-09-22T12:56:10.387Z,26.30
2017-09-22T12:58:38.836Z,26.50
2017-09-22T13:01:06.436Z,26.50
2017-09-22T13:03:34.011Z,26.10
2017-09-22T13:06:03.765Z,26.50
2017-09-22T13:08:31.336Z,26.50
2017-09-22T13:10:58.924Z,26.50
2017-09-22T13:13:27.253Z,26.50
2017-09-22T13:15:54.856Z,26.50
2017-09-22T13:18:23.218Z,26.50
2017-09-22T13:20:50.875Z,26.50
2017-09-22T13:23:18.540Z,26.10
2017-09-22T13:25:46.104Z,25.50
2017-09-22T13:28:13.701Z,25.90
2017-09-22T13:30:41.272Z,25.90
2017-09-22T13:33:08.864Z,25.40
2017-09-22T13:35:36.440Z,25.10
2017-09-22T13:38:04.028Z,24.90
2017-09-22T13:40:32.355Z,23.80
2017-09-22T13:43:00.912Z,23.70
2017-09-22T13:45:28.476Z,23.10
2017-09-22T13:47:56.071Z,22.60
2017-09-22T13:50:23.636Z,22.30
2017-09-22T13:52:51.308Z,21.90
2017-09-22T13:55:19.690Z,21.40
2017-09-22T13:57:47.349Z,21.30
2017-09-22T14:00:16.429Z,21.00
2017-09-22T14:02:44.116Z,21.00
2017-09-22T14:05:11.689Z,20.70
2017-09-22T14:07:40.052Z,20.20
2017-09-22T14:10:07.637Z,20.10
2017-09-22T14:12:35.996Z,19.70
2017-09-22T14:15:04.517Z,19.60
2017-09-22T14:17:32.133Z,19.70
2017-09-22T14:20:01.040Z,19.80
2017-09-22T14:22:29.411Z,19.90
2017-09-22T14:24:57.763Z,19.80
2017-09-22T14:27:25.333Z,19.80
2017-09-22T14:29:52.923Z,19.60
2017-09-22T14:32:21.252Z,19.50
2017-09-22T14:34:48.944Z,19.50
2017-09-22T14:37:16.612Z,19.50
2017-09-22T14:39:44.209Z,19.50
2017-09-22T14:42:11.776Z,19.40
2017-09-22T14:44:39.364Z,19.30
2017-09-22T14:47:06.952Z,19.10
2017-09-22T14:49:34.540Z,18.90
2017-09-22T14:52:03.692Z,18.80
2017-09-22T14:54:31.284Z,18.80
2017-09-22T14:56:58.848Z,18.70
2017-09-22T14:59:27.211Z,18.50
2017-09-22T15:01:54.900Z,18.50
2017-09-22T15:04:23.286Z,18.50
2017-09-22T15:06:51.636Z,18.50
2017-09-22T15:09:19.208Z,18.50
2017-09-22T15:11:46.859Z,18.40
2017-09-22T15:14:14.518Z,18.30
2017-09-22T15:16:42.467Z,18.20
2017-09-22T15:19:10.053Z,18.20
2017-09-22T15:21:37.718Z,18.10
2017-09-22T15:24:05.275Z,18.10
2017-09-22T15:26:32.939Z,18.20
2017-09-22T15:29:01.893Z,18.20
2017-09-22T15:31:29.496Z,18.20
2017-09-22T15:33:57.835Z,18.20
2017-09-22T15:36:25.425Z,18.20
2017-09-22T15:38:53.005Z,18.20
2017-09-22T15:41:21.369Z,18.20
2017-09-22T15:43:49.032Z,18.20
2017-09-22T15:46:16.624Z,18.20
2017-09-22T15:48:44.952Z,18.10
2017-09-22T15:51:12.520Z,18.10
2017-09-22T15:53:40.108Z,18.10
2017-09-22T15:56:08.445Z,18.00
2017-09-22T15:58:36.132Z,18.00
2017-09-22T16:01:03.985Z,17.90
2017-09-22T16:03:31.664Z,17.90
2017-09-22T16:06:00.148Z,17.90
2017-09-22T16:08:27.995Z,17.80
2017-09-22T16:10:55.580Z,17.80
2017-09-22T16:13:23.176Z,17.70
2017-09-22T16:15:50.744Z,17.70
2017-09-22T16:18:18.368Z,17.60
2017-09-22T16:20:45.931Z,17.60
2017-09-22T16:23:14.396Z,17.30
2017-09-22T16:25:41.960Z,17.40
2017-09-22T16:28:09.807Z,17.20
2017-09-22T16:30:37.379Z,17.10
2017-09-22T16:33:05.012Z,17.00
2017-09-22T16:35:32.676Z,16.90
2017-09-22T16:38:02.052Z,16.80
2017-09-22T16:40:29.672Z,16.60
2017-09-22T16:42:57.288Z,16.50
2017-09-22T16:45:24.864Z,16.30
2017-09-22T16:47:52.452Z,16.20
2017-09-22T16:50:20.012Z,16.00
2017-09-22T16:52:47.625Z,15.90
2017-09-22T16:55:15.240Z,15.80
2017-09-22T16:57:42.808Z,15.70
2017-09-22T17:00:10.425Z,15.70
2017-09-22T17:02:37.993Z,15.60
2017-09-22T17:05:05.680Z,15.50
2017-09-22T17:07:33.352Z,15.40
2017-09-22T17:10:02.128Z,15.30
2017-09-22T17:12:29.696Z,15.30
2017-09-22T17:14:57.290Z,15.20
2017-09-22T17:17:25.628Z,15.10
2017-09-22T17:19:53.309Z,15.10
2017-09-22T17:22:20.912Z,15.00
2017-09-22T17:24:48.576Z,15.00
2017-09-22T17:27:16.249Z,14.90
2017-09-22T17:29:44.140Z,14.80
2017-09-22T17:32:11.709Z,14.70
2017-09-22T17:34:39.300Z,14.60
2017-09-22T17:37:07.642Z,14.50
2017-09-22T17:39:35.245Z,14.50
2017-09-22T17:42:03.585Z,14.40
2017-09-22T17:44:31.181Z,14.40
2017-09-22T17:47:00.468Z,14.20
2017-09-22T17:49:29.563Z,14.20
2017-09-22T17:51:57.131Z,14.20
2017-09-22T17:54:25.562Z,14.10
2017-09-22T17:56:53.152Z,14.10
2017-09-22T17:59:20.751Z,14.10
2017-09-22T18:01:48.324Z,14.00
2017-09-22T18:04:15.945Z,14.00
2017-09-22T18:06:43.612Z,14.00
2017-09-22T18:09:11.953Z,14.00
2017-09-22T18:11:39.643Z,13.90
2017-09-22T18:14:07.270Z,13.90
2017-09-22T18:16:34.972Z,13.90
2017-09-22T18:19:03.667Z,13.90
2017-09-22T18:21:32.039Z,14.00
2017-09-22T18:24:01.004Z,14.10
2017-09-22T18:26:28.604Z,14.00
2017-09-22T18:28:56.264Z,14.00
2017-09-22T18:31:23.856Z,14.00
2017-09-22T18:33:51.424Z,13.90
2017-09-22T18:36:19.047Z,13.90
2017-09-22T18:38:46.627Z,13.80
2017-09-22T18:41:15.079Z,13.70
2017-09-22T18:43:42.647Z,13.70
2017-09-22T18:46:10.256Z,13.70
2017-09-22T18:48:37.825Z,13.70
2017-09-22T18:51:05.420Z,13.70
2017-09-22T18:53:32.988Z,13.70
2017-09-22T18:56:02.824Z,13.80
2017-09-22T18:58:31.160Z,13.80
2017-09-22T19:00:58.733Z,13.80
2017-09-22T19:03:26.324Z,13.90
2017-09-22T19:05:54.672Z,13.90
2017-09-22T19:08:22.307Z,13.90
2017-09-22T19:10:49.881Z,14.00
2017-09-22T19:13:17.487Z,14.10
2017-09-22T19:15:45.823Z,14.10
2017-09-22T19:18:13.420Z,14.10
2017-09-22T19:20:41.794Z,14.10
2017-09-22T19:23:10.155Z,14.20
2017-09-22T19:25:39.260Z,14.10
2017-09-22T19:28:06.847Z,14.10
2017-09-22T19:30:35.176Z,14.20
2017-09-22T19:33:03.788Z,14.20
2017-09-22T19:35:31.453Z,14.20
2017-09-22T19:37:59.108Z,14.20
2017-09-22T19:40:26.774Z,14.10
2017-09-22T19:42:54.400Z,14.10
2017-09-22T19:45:21.973Z,14.00
2017-09-22T19:47:49.581Z,13.90
2017-09-22T19:50:17.939Z,13.70
2017-09-22T19:52:45.574Z,13.70
2017-09-22T19:55:13.168Z,13.70
2017-09-22T19:57:41.544Z,13.50
2017-09-22T20:00:09.136Z,13.50
2017-09-22T20:02:36.712Z,13.40
2017-09-22T20:05:04.309Z,13.30
2017-09-22T20:07:31.888Z,13.10
2017-09-22T20:10:01.077Z,12.90
2017-09-22T20:12:28.648Z,12.90
2017-09-22T20:14:56.240Z,12.80
2017-09-22T20:17:23.854Z,12.70
2017-09-22T20:19:51.452Z,12.60
2017-09-22T20:22:19.792Z,12.40
2017-09-22T20:24:48.897Z,12.30
2017-09-22T20:27:16.477Z,12.30
2017-09-22T20:29:44.840Z,12.20
2017-09-22T20:32:12.408Z,12.20
2017-09-22T20:34:40.000Z,12.20
2017-09-22T20:37:07.579Z,12.20
2017-09-22T20:39:35.469Z,12.10
2017-09-22T20:42:03.485Z,12.10
2017-09-22T20:44:31.841Z,12.10
2017-09-22T20:47:01.838Z,12.10
2017-09-22T20:49:29.432Z,12.10
2017-09-22T20:51:57.773Z,12.20
2017-09-22T20:54:25.564Z,12.20
2017-09-22T20:56:53.901Z,12.30
2017-09-22T20:59:21.480Z,12.30
2017-09-22T21:01:49.071Z,12.30
2017-09-22T21:04:17.408Z,12.40
2017-09-22T21:06:45.121Z,12.40
2017-09-22T21:09:13.483Z,12.60
2017-09-22T21:11:41.047Z,12.50
2017-09-22T21:14:10.240Z,12.60
2017-09-22T21:16:37.904Z,12.60
2017-09-22T21:19:05.505Z,12.70
2017-09-22T21:21:33.391Z,12.70
2017-09-22T21:24:02.716Z,12.70
2017-09-22T21:26:30.399Z,12.80
2017-09-22T21:28:57.988Z,12.80
2017-09-22T21:31:25.559Z,12.80
2017-09-22T21:33:53.152Z,12.80
2017-09-22T21:36:20.724Z,12.90
2017-09-22T21:38:48.357Z,12.90
2017-09-22T21:41:15.936Z,13.00
2017-09-22T21:43:43.623Z,13.00
2017-09-22T21:46:11.195Z,13.10
2017-09-22T21:48:38.952Z,13.10
2017-09-22T21:51:06.528Z,13.10
2017-09-22T21:53:34.867Z,13.10
2017-09-22T21:56:03.790Z,13.10
2017-09-22T21:58:31.360Z,13.10
2017-09-22T22:01:00.643Z,13.10
2017-09-22T22:03:33.899Z,13.00
2017-09-22T22:06:08.388Z,13.10
2017-09-22T22:08:36.725Z,13.10
2017-09-22T22:11:04.320Z,13.00
2017-09-22T22:13:32.660Z,13.00
2017-09-22T22:16:01.877Z,13.00
2017-09-22T22:18:29.536Z,12.90
2017-09-22T22:20:57.136Z,13.00
2017-09-22T22:23:24.759Z,13.00
2017-09-22T22:25:52.423Z,12.90
2017-09-22T22:28:20.084Z,12.90
2017-09-22T22:30:47.813Z,12.90
2017-09-22T22:33:15.376Z,12.80
2017-09-22T22:35:42.961Z,12.90
2017-09-22T22:38:14.424Z,12.90
2017-09-22T22:40:41.993Z,12.90
2017-09-22T22:43:09.592Z,12.90
2017-09-22T22:45:37.164Z,12.80
2017-09-22T22:48:04.979Z,12.80
2017-09-22T22:50:32.643Z,12.80
2017-09-22T22:53:02.735Z,12.60
2017-09-22T22:55:30.636Z,12.60
2017-09-22T22:57:59.935Z,12.70
2017-09-22T23:00:27.504Z,12.70
2017-09-22T23:02:55.864Z,12.80
2017-09-22T23:05:23.460Z,12.80
2017-09-22T23:07:51.034Z,12.90
2017-09-22T23:10:18.636Z,12.80
2017-09-22T23:12:46.311Z,12.80
2017-09-22T23:15:14.216Z,12.80
2017-09-22T23:17:41.780Z,12.80
2017-09-22T23:20:09.344Z,12.80
2017-09-22T23:22:36.936Z,12.80
2017-09-22T23:25:04.508Z,12.80
2017-09-22T23:27:32.101Z,12.80
2017-09-22T23:30:01.781Z,12.70
2017-09-22T23:32:29.371Z,12.70
2017-09-22T23:34:57.711Z,12.70
2017-09-22T23:37:25.324Z,12.70
2017-09-22T23:39:53.656Z,12.70
2017-09-22T23:42:21.269Z,12.70
2017-09-22T23:44:48.886Z,12.80
2017-09-22T23:47:16.520Z,12.80
2017-09-22T23:49:44.116Z,12.80
2017-09-22T23:52:11.752Z,12.90
2017-09-22T23:54:39.340Z,12.90
2017-09-22T23:57:08.425Z,12.90
2017-09-22T23:59:36.032Z,12.90
